Terminal Aerodrome Forecast
Issued by NWS

Home | Current Version | Previous Version | Text Only | Print | Product List | Glossary On
Versions: 1 2 3 4 5 6 7 8 9 10 11 12 13 14 15 16 17 18 19
000
FTUS41 KAKQ 061134
TAFPHF
TAF
KPHF 061134Z 0612/0712 18007KT P6SM SCT020 SCT250
      TEMPO 0612/0614 BKN020
     FM061700 20010KT P6SM VCSH BKN050
     FM070000 20007KT P6SM SCT100=

USA.gov is the U.S. government's official web portal to all federal, state and local government web resources and services.